Aviation Digital Data Service (ADDS)

Output produced by METARs form (1403 UTC 16 August 2022)
found at http://aviationweather.gov/metar/data/
 
METAR text: KDKB 161355Z AUTO 05008KT 10SM CLR 20/18 A3014 RMK AO2 T01970180
Conditions at: KDKB (DE KALB , IL, US) observed 1355 UTC 16 August 2022
Temperature: 19.7°C (67°F)
Dewpoint: 18.0°C (64°F) [RH = 90%]
Pressure (altimeter): 30.14 inches Hg (1020.7 mb)
Winds: from the NE (50 degrees) at 9 MPH (8 knots; 4.1 m/s)
Visibility: 10 or more miles (16+ km)
Ceiling: at least 12,000 feet AGL
Clouds: sky clear below 12,000 feet AGL
Weather: automated observation with no human augmentation;
there may or may not be significant weather present at this time